Time;durP1;ratioP1;P1;durP2;ratioP2;P2;SDS_P1;SDS_P2;PMS_P1;PMS_P2;Temp;Humidity;BMP_temperature;BMP_pressure;BME280_temperature;BME280_humidity;BME280_pressure;Samples;Min_cycle;Max_cycle;Signal;HPM_P1;HPM_P2
2020/12/24 00:01:53;;;;;;;26.02;15.10;;;;;;;8.70;88.56;99436.61;1700326;84;21176;-85
2020/12/24 00:04:19;;;;;;;27.22;16.37;;;;;;;8.71;88.58;99439.11;1700466;84;21198;-86
2020/12/24 00:06:46;;;;;;;24.50;13.88;;;;;;;8.73;88.57;99421.13;1700416;83;21152;-85
2020/12/24 00:09:12;;;;;;;24.80;13.60;;;;;;;8.77;88.59;99413.61;1700369;84;21618;-85
2020/12/24 00:11:38;;;;;;;22.52;13.30;;;;;;;8.80;88.58;99429.20;1700296;84;21184;-85
2020/12/24 00:14:05;;;;;;;22.58;12.23;;;;;;;8.83;88.59;99422.21;1700363;83;21197;-86
2020/12/24 00:16:31;;;;;;;21.87;13.25;;;;;;;8.87;88.59;99422.14;1700082;83;22044;-85
2020/12/24 00:18:58;;;;;;;19.05;11.85;;;;;;;8.90;88.61;99412.50;1700380;84;21228;-85
2020/12/24 00:21:24;;;;;;;20.95;12.43;;;;;;;8.92;88.61;99427.75;1700396;84;21140;-85
2020/12/24 00:23:50;;;;;;;18.32;11.83;;;;;;;8.94;88.62;99435.02;1700502;84;21169;-85
2020/12/24 00:26:17;;;;;;;19.52;11.25;;;;;;;8.95;88.64;99435.36;1700297;83;21574;-86
2020/12/24 00:28:43;;;;;;;16.32;10.78;;;;;;;9.00;88.63;99439.63;1700270;83;21263;-85
2020/12/24 00:31:09;;;;;;;19.07;10.80;;;;;;;9.03;88.65;99444.58;1700309;83;21159;-85
2020/12/24 00:33:35;;;;;;;18.82;11.65;;;;;;;9.06;88.67;99432.74;1699966;84;21161;-85
2020/12/24 00:36:02;;;;;;;15.70;10.10;;;;;;;9.08;88.67;99433.41;1700462;84;21167;-85
2020/12/24 00:38:28;;;;;;;15.30;9.88;;;;;;;9.10;88.68;99426.88;1700396;84;21200;-85
2020/12/24 00:40:55;;;;;;;14.47;9.23;;;;;;;9.13;88.66;99423.84;1700410;84;21586;-85
2020/12/24 00:43:22;;;;;;;12.58;8.70;;;;;;;9.17;88.68;99427.80;1700155;83;21633;-85
2020/12/24 00:45:48;;;;;;;11.57;7.45;;;;;;;9.22;88.68;99441.34;1700228;84;21570;-85
2020/12/24 00:48:14;;;;;;;11.40;7.67;;;;;;;9.28;88.67;99445.13;1700339;83;21593;-85
2020/12/24 00:50:40;;;;;;;11.80;7.72;;;;;;;9.33;88.70;99433.41;1700354;84;21160;-85
2020/12/24 00:53:07;;;;;;;9.73;6.62;;;;;;;9.37;88.69;99424.88;1700536;84;21268;-85
2020/12/24 00:55:33;;;;;;;10.08;6.15;;;;;;;9.42;88.69;99423.83;1700143;84;21161;-85
2020/12/24 00:57:59;;;;;;;10.20;7.25;;;;;;;9.45;88.71;99426.11;1700337;84;21155;-85
2020/12/24 01:00:26;;;;;;;9.13;6.10;;;;;;;9.48;88.71;99428.39;1699872;84;21144;-85
2020/12/24 01:02:52;;;;;;;12.23;7.20;;;;;;;9.52;88.74;99428.34;1700575;84;21152;-84
2020/12/24 01:05:18;;;;;;;12.93;7.33;;;;;;;9.57;88.73;99434.41;1700480;83;22057;-85
2020/12/24 01:07:45;;;;;;;11.78;7.00;;;;;;;9.60;88.73;99437.23;1700174;83;21755;-84
2020/12/24 01:10:11;;;;;;;9.23;6.08;;;;;;;9.60;88.73;99445.22;1700388;84;21184;-85
2020/12/24 01:12:37;;;;;;;9.70;6.30;;;;;;;9.61;88.75;99444.18;1700106;84;21160;-85
2020/12/24 01:15:06;;;;;;;8.38;5.85;;;;;;;9.61;88.76;99448.17;1700288;84;21196;-84
2020/12/24 01:17:32;;;;;;;9.68;5.50;;;;;;;9.62;88.76;99434.69;1704274;84;22169;-85
2020/12/24 01:19:59;;;;;;;7.15;4.47;;;;;;;9.61;88.75;99435.69;1709209;83;21184;-85
2020/12/24 01:22:25;;;;;;;8.33;4.75;;;;;;;9.63;88.75;99439.52;1709231;83;21189;-85
2020/12/24 01:24:51;;;;;;;6.00;4.50;;;;;;;9.63;88.76;99435.02;1709158;84;21200;-86
2020/12/24 01:27:17;;;;;;;10.23;4.92;;;;;;;9.67;88.80;99448.28;1709231;84;21199;-85
2020/12/24 01:29:44;;;;;;;7.42;4.35;;;;;;;9.70;88.78;99447.07;1709044;84;22121;-85
2020/12/24 01:32:11;;;;;;;5.72;3.40;;;;;;;9.72;88.81;99447.69;1709146;83;21245;-85
2020/12/24 01:34:37;;;;;;;5.50;3.87;;;;;;;9.71;88.80;99442.88;1708994;84;21133;-85
2020/12/24 01:37:03;;;;;;;5.80;3.75;;;;;;;9.73;88.80;99439.53;1709147;84;21170;-85
2020/12/24 01:39:29;;;;;;;6.75;3.75;;;;;;;9.73;88.80;99439.53;1709148;83;21169;-85
2020/12/24 01:41:56;;;;;;;5.75;3.92;;;;;;;9.73;88.83;99430.72;1693017;84;21248;-85
2020/12/24 01:44:23;;;;;;;6.45;3.50;;;;;;;9.72;88.83;99423.73;1694531;83;21156;-86
2020/12/24 01:46:49;;;;;;;6.30;3.72;;;;;;;9.71;88.82;99426.09;1723575;83;21124;-85
2020/12/24 01:49:18;;;;;;;8.53;4.85;;;;;;;9.70;88.82;99427.10;1723535;82;21211;-85
2020/12/24 01:51:53;;;;;;;6.05;4.22;;;;;;;9.69;88.81;99414.80;1694582;84;21147;-85
2020/12/24 01:54:22;;;;;;;4.90;3.02;;;;;;;9.69;88.83;99428.11;1723659;82;22122;-86
2020/12/24 01:56:49;;;;;;;4.70;2.95;;;;;;;9.70;88.81;99416.45;1723311;83;21156;-86
2020/12/24 01:59:15;;;;;;;3.67;2.33;;;;;;;9.72;88.80;99421.07;1694427;84;21148;-85
2020/12/24 02:01:44;;;;;;;4.85;2.20;;;;;;;9.74;88.81;99423.05;1675696;83;21613;-85
2020/12/24 02:04:11;;;;;;;2.75;2.00;;;;;;;9.78;88.80;99427.00;1723526;83;21164;-85
2020/12/24 02:06:40;;;;;;;3.42;2.27;;;;;;;9.81;88.79;99427.95;1694513;84;21175;-85
2020/12/24 02:09:06;;;;;;;3.90;2.83;;;;;;;9.84;88.77;99423.06;1723355;82;21605;-86
2020/12/24 02:11:32;;;;;;;3.05;2.05;;;;;;;9.85;88.79;99418.03;1723372;82;21191;-85
2020/12/24 02:13:59;;;;;;;3.58;2.65;;;;;;;9.89;88.79;99417.16;1694429;84;21163;-85
2020/12/24 02:16:25;;;;;;;3.30;3.00;;;;;;;9.90;88.76;99416.15;1723177;83;21163;-85
2020/12/24 02:18:51;;;;;;;3.70;3.10;;;;;;;9.89;88.76;99412.66;1729909;82;22099;-85
2020/12/24 02:21:18;;;;;;;3.62;2.85;;;;;;;9.89;88.74;99409.16;1701174;83;21183;-85
2020/12/24 02:23:44;;;;;;;2.33;2.00;;;;;;;9.89;88.76;99409.99;1731049;82;21144;-85
2020/12/24 02:26:10;;;;;;;2.00;1.62;;;;;;;9.89;88.76;99404.67;1730783;82;21139;-85
2020/12/24 02:28:36;;;;;;;2.17;1.40;;;;;;;9.89;88.75;99400.67;1701929;83;21163;-85
2020/12/24 02:31:03;;;;;;;1.40;0.90;;;;;;;9.88;88.75;99403.55;1730939;82;21259;-85
2020/12/24 02:33:29;;;;;;;0.98;0.80;;;;;;;9.85;88.75;99405.25;1731085;82;21138;-85
2020/12/24 02:35:55;;;;;;;1.75;1.17;;;;;;;9.84;88.75;99403.59;1701746;83;21179;-85
2020/12/24 02:38:22;;;;;;;3.10;1.30;;;;;;;9.85;88.73;99394.61;1731153;82;21569;-87
2020/12/24 02:40:48;;;;;;;2.52;1.30;;;;;;;9.86;88.74;99396.23;1731155;82;21176;-85
2020/12/24 02:43:14;;;;;;;2.00;1.10;;;;;;;9.89;88.72;99389.19;1701717;84;21203;-85
2020/12/24 02:45:40;;;;;;;2.37;1.50;;;;;;;9.90;88.73;99389.52;1730990;82;21234;-85
2020/12/24 02:48:07;;;;;;;3.80;2.05;;;;;;;9.92;88.71;99390.17;1731157;82;21119;-85
2020/12/24 02:50:33;;;;;;;1.45;1.05;;;;;;;9.95;88.71;99387.12;1701774;83;21230;-84
2020/12/24 02:52:59;;;;;;;3.80;1.62;;;;;;;9.99;88.70;99400.38;1731218;82;21131;-85
2020/12/24 02:55:26;;;;;;;2.25;1.45;;;;;;;10.00;88.67;99387.36;1731212;82;21233;-85
2020/12/24 02:57:52;;;;;;;3.33;1.77;;;;;;;10.03;88.66;99389.63;1701804;83;21149;-85
2020/12/24 03:00:18;;;;;;;3.47;2.20;;;;;;;10.05;88.67;99387.62;1731009;82;21557;-85
2020/12/24 03:02:44;;;;;;;4.33;1.80;;;;;;;10.08;88.66;99379.23;1731245;82;21143;-85
2020/12/24 03:05:11;;;;;;;2.58;1.40;;;;;;;10.08;88.62;99365.92;1701796;84;21182;-85
2020/12/24 03:07:38;;;;;;;2.40;1.10;;;;;;;10.07;88.63;99358.94;1731237;82;21190;-85
2020/12/24 03:10:04;;;;;;;1.92;1.22;;;;;;;10.08;88.61;99368.59;1730985;81;21151;-85
2020/12/24 03:12:30;;;;;;;2.05;1.37;;;;;;;10.07;88.60;99356.27;1702160;84;21718;-85
2020/12/24 03:14:56;;;;;;;1.90;1.30;;;;;;;10.07;88.59;99362.11;1731068;82;21593;-85
2020/12/24 03:17:23;;;;;;;4.12;1.47;;;;;;;10.02;88.55;99364.03;1731002;82;21163;-85
2020/12/24 03:19:49;;;;;;;1.42;0.95;;;;;;;10.00;88.55;99358.06;1701984;84;21171;-85
2020/12/24 03:22:15;;;;;;;1.98;1.20;;;;;;;10.00;88.54;99352.73;1731109;82;21155;-85
2020/12/24 03:24:41;;;;;;;1.92;1.05;;;;;;;9.95;88.51;99356.49;1731146;82;21187;-85
2020/12/24 03:27:08;;;;;;;3.67;2.02;;;;;;;9.90;88.49;99361.05;1701857;83;21120;-85
2020/12/24 03:29:35;;;;;;;6.50;3.95;;;;;;;9.88;88.48;99379.58;1730979;82;21151;-85
2020/12/24 03:32:01;;;;;;;2.45;1.65;;;;;;;9.87;88.49;99387.23;1731057;82;22266;-85
2020/12/24 03:34:27;;;;;;;2.42;1.87;;;;;;;9.86;88.48;99378.92;1701852;84;21629;-85
2020/12/24 03:36:54;;;;;;;4.15;1.82;;;;;;;9.87;88.45;99385.91;1731151;82;21135;-85
2020/12/24 03:39:20;;;;;;;3.00;1.70;;;;;;;9.86;88.43;99388.24;1731033;81;21465;-85
2020/12/24 03:41:46;;;;;;;2.22;1.32;;;;;;;9.84;88.41;99392.95;1701996;84;21418;-85
2020/12/24 03:44:12;;;;;;;5.00;1.45;;;;;;;9.83;88.39;99400.61;1730959;82;22082;-85
2020/12/24 03:46:39;;;;;;;3.92;2.17;;;;;;;9.84;88.37;99396.94;1731063;82;21604;-85
2020/12/24 03:49:06;;;;;;;1.95;1.27;;;;;;;9.83;88.35;99388.63;1701951;84;21541;-85
2020/12/24 03:51:32;;;;;;;3.52;1.57;;;;;;;9.81;88.35;99398.66;1731153;82;21588;-85
2020/12/24 03:53:58;;;;;;;2.12;1.02;;;;;;;9.81;88.34;99388.00;1731171;82;21143;-85
2020/12/24 03:56:24;;;;;;;6.92;1.37;;;;;;;9.79;88.31;99392.67;1701745;84;21218;-85
2020/12/24 03:58:51;;;;;;;5.33;1.82;;;;;;;9.76;88.29;99401.88;1730944;82;21203;-85
2020/12/24 04:01:17;;;;;;;3.60;2.40;;;;;;;9.76;88.28;99413.03;1731128;82;21127;-85
2020/12/24 04:03:43;;;;;;;4.17;2.00;;;;;;;9.76;88.27;99409.03;1701853;83;21211;-85
2020/12/24 04:06:09;;;;;;;1.65;1.20;;;;;;;9.73;88.23;99408.91;1731113;82;21607;-85
2020/12/24 04:08:36;;;;;;;3.37;1.60;;;;;;;9.74;88.22;99404.42;1731184;82;21252;-85
2020/12/24 04:11:02;;;;;;;2.42;1.45;;;;;;;9.73;88.20;99390.78;1701731;84;21183;-85
2020/12/24 04:13:28;;;;;;;1.67;1.07;;;;;;;9.71;88.17;99379.51;1730951;82;21135;-85
2020/12/24 04:15:55;;;;;;;2.10;1.15;;;;;;;9.73;88.15;99374.80;1731258;82;21164;-85
2020/12/24 04:18:21;;;;;;;6.05;1.72;;;;;;;9.70;88.15;99373.36;1697875;83;21204;-85
2020/12/24 04:20:47;;;;;;;2.25;1.20;;;;;;;9.67;88.12;99368.92;1702849;84;22072;-84
2020/12/24 04:23:13;;;;;;;2.90;1.45;;;;;;;9.65;88.13;99356.28;1702677;83;21160;-84
2020/12/24 04:25:40;;;;;;;2.98;1.17;;;;;;;9.63;88.11;99361.81;1720856;83;21156;-85
2020/12/24 04:28:06;;;;;;;2.95;1.77;;;;;;;9.60;88.09;99365.36;1720880;83;21218;-85
2020/12/24 04:30:33;;;;;;;2.67;0.98;;;;;;;9.58;88.07;99366.87;1721107;83;21156;-84
2020/12/24 04:32:59;;;;;;;0.80;0.80;;;;;;;9.57;88.07;99380.38;1721157;83;22174;-85
2020/12/24 04:35:25;;;;;;;3.35;0.85;;;;;;;9.53;88.03;99382.06;1720869;83;21598;-85
2020/12/24 04:37:51;;;;;;;1.27;0.70;;;;;;;9.51;88.02;99374.78;1720960;83;21136;-85
2020/12/24 04:40:18;;;;;;;1.77;0.88;;;;;;;9.52;88.01;99375.11;1720957;83;21159;-85
2020/12/24 04:42:44;;;;;;;2.87;1.25;;;;;;;9.57;87.98;99362.55;1720819;83;21238;-85
2020/12/24 04:45:10;;;;;;;1.75;0.80;;;;;;;9.59;87.97;99357.05;1720491;83;22065;-84
2020/12/24 04:47:38;;;;;;;3.17;1.00;;;;;;;9.61;87.95;99343.86;1720940;83;21590;-84
2020/12/24 04:50:05;;;;;;;2.22;1.32;;;;;;;9.61;87.91;99344.36;1696703;83;21168;-85
2020/12/24 04:52:31;;;;;;;1.30;0.80;;;;;;;9.61;87.91;99349.69;1650425;83;21175;-85
2020/12/24 04:54:57;;;;;;;1.62;0.80;;;;;;;9.57;87.89;99356.43;1721045;83;21671;-83
2020/12/24 04:57:24;;;;;;;1.82;0.95;;;;;;;9.54;87.86;99369.08;1720585;83;21199;-84
2020/12/24 04:59:52;;;;;;;1.90;0.80;;;;;;;9.58;87.83;99384.67;1720958;83;21616;-84
2020/12/24 05:02:18;;;;;;;1.00;0.62;;;;;;;9.58;87.80;99371.36;1720900;83;21610;-85
2020/12/24 05:04:44;;;;;;;0.47;0.47;;;;;;;9.56;87.78;99369.41;1721002;83;21156;-84
2020/12/24 05:07:10;;;;;;;1.12;0.70;;;;;;;9.57;87.73;99364.41;1720957;83;21160;-85
2020/12/24 05:09:37;;;;;;;5.35;0.68;;;;;;;9.57;87.71;99365.21;1721071;83;21132;-84
2020/12/24 05:12:04;;;;;;;1.98;0.88;;;;;;;9.58;87.68;99363.38;1720846;83;21554;-84
2020/12/24 05:14:31;;;;;;;1.30;0.68;;;;;;;9.59;87.64;99365.03;1720735;83;21168;-84
2020/12/24 05:17:01;;;;;;;4.70;1.10;;;;;;;9.56;87.61;99368.08;1720917;83;21213;-84
2020/12/24 05:19:32;;;;;;;0.90;0.60;;;;;;;9.57;87.59;99373.73;1707561;83;21164;-85
2020/12/24 05:21:59;;;;;;;1.55;0.60;;;;;;;9.58;87.56;99371.36;1702378;83;21198;-85
2020/12/24 05:24:27;;;;;;;1.37;0.57;;;;;;;9.58;87.50;99358.05;1702236;83;21172;-85
2020/12/24 05:27:09;;;;;;;2.15;0.85;;;;;;;9.57;87.48;99359.09;1682520;84;21148;-85
2020/12/24 05:29:39;;;;;;;2.87;0.70;;;;;;;9.56;87.46;99364.09;1702542;84;21105;-84
2020/12/24 05:32:06;;;;;;;2.25;0.72;;;;;;;9.56;87.41;99354.27;1702093;84;21573;-85
2020/12/24 05:34:32;;;;;;;1.87;0.82;;;;;;;9.58;87.40;99348.23;1702317;83;22052;-84
2020/12/24 05:37:17;;;;;;;3.47;0.98;;;;;;;9.59;87.36;99338.42;1702262;84;21637;-84
2020/12/24 05:39:46;;;;;;;2.58;0.82;;;;;;;9.57;87.35;99333.27;1702247;83;21145;-84
2020/12/24 05:42:12;;;;;;;1.50;0.70;;;;;;;9.57;87.30;99328.48;1702304;83;21167;-84
2020/12/24 05:44:39;;;;;;;1.55;0.70;;;;;;;9.53;87.30;99326.17;1702093;83;21610;-84
2020/12/24 05:47:05;;;;;;;2.65;1.47;;;;;;;9.53;87.26;99344.80;1702328;84;21134;-84
2020/12/24 05:49:33;;;;;;;0.60;0.60;;;;;;;9.51;87.23;99353.49;1702120;84;21143;-85
2020/12/24 05:52:07;;;;;;;2.17;0.80;;;;;;;9.51;87.18;99344.18;1702228;83;21179;-84
2020/12/24 05:54:34;;;;;;;2.08;0.80;;;;;;;9.56;87.15;99337.47;1702272;83;21621;-84
2020/12/24 05:57:01;;;;;;;6.87;1.27;;;;;;;9.58;87.09;99318.13;1702172;83;21597;-85
2020/12/24 05:59:29;;;;;;;2.50;0.90;;;;;;;9.60;87.03;99321.44;1702387;83;21962;-85
2020/12/24 06:02:16;;;;;;;1.40;0.60;;;;;;;9.59;87.00;99314.47;1702148;84;21168;-84
2020/12/24 06:04:49;;;;;;;1.32;0.65;;;;;;;9.59;86.95;99317.13;1684692;84;21224;-84
2020/12/24 06:07:27;;;;;;;2.37;0.62;;;;;;;9.59;86.91;99335.75;1702107;84;21565;-84
2020/12/24 06:09:54;;;;;;;3.62;0.82;;;;;;;9.57;86.86;99327.16;1702203;83;21132;-84
2020/12/24 06:12:26;;;;;;;1.00;0.50;;;;;;;9.56;86.84;99322.83;1702228;82;21269;-85
2020/12/24 06:14:58;;;;;;;2.35;0.70;;;;;;;9.54;86.77;99317.18;1702126;83;21584;-85
2020/12/24 06:17:26;;;;;;;2.92;0.60;;;;;;;9.54;86.72;99319.02;1702413;84;21172;-85
2020/12/24 06:19:53;;;;;;;0.93;0.45;;;;;;;9.51;86.68;99317.56;1708551;83;21160;-85
2020/12/24 06:22:22;;;;;;;4.25;1.57;;;;;;;9.53;86.65;99306.21;1710963;82;21171;-85
2020/12/24 06:24:57;;;;;;;5.25;1.12;;;;;;;9.53;86.60;99303.55;1710840;83;21570;-85
2020/12/24 06:27:48;;;;;;;5.62;2.62;;;;;;;9.55;86.56;99290.06;1710730;82;21617;-85
2020/12/24 06:30:23;;;;;;;15.03;7.70;;;;;;;9.54;86.54;99287.08;1710968;83;21184;-85
2020/12/24 06:32:51;;;;;;;5.80;2.15;;;;;;;9.54;86.50;99297.22;1710958;82;21802;-85
2020/12/24 06:35:37;;;;;;;3.47;1.10;;;;;;;9.51;86.47;99318.06;1710941;83;21172;-85
2020/12/24 06:38:05;;;;;;;4.75;1.00;;;;;;;9.50;86.39;99297.78;1710827;83;22017;-85
2020/12/24 06:40:37;;;;;;;4.25;1.12;;;;;;;9.48;86.36;99290.00;1710932;83;21147;-84
2020/12/24 06:43:08;;;;;;;3.20;1.27;;;;;;;9.46;86.30;99297.34;1710645;83;21550;-85
2020/12/24 06:45:40;;;;;;;3.17;1.50;;;;;;;9.44;86.24;99307.36;1710891;82;21152;-84
2020/12/24 06:48:20;;;;;;;1.62;0.95;;;;;;;9.45;86.20;99321.50;1711022;83;21557;-85
2020/12/24 06:51:02;;;;;;;;;;;;;;;9.47;86.12;99318.95;1713525;83;21297;-84
2020/12/24 06:53:34;;;;;;;2.50;1.12;;;;;;;9.51;86.02;99324.22;1710915;83;20863;-85
2020/12/24 06:56:23;;;;;;;1.65;0.85;;;;;;;9.58;85.95;99333.59;1710878;83;21168;-84
2020/12/24 06:58:54;;;;;;;;;;;;;;;9.63;85.84;99323.72;1713311;83;21160;-84
2020/12/24 07:01:26;;;;;;;1.50;0.80;;;;;;;9.64;85.77;99324.05;1710904;83;20290;-84
2020/12/24 07:03:54;;;;;;;1.82;0.90;;;;;;;9.63;85.72;99333.04;1710839;83;21203;-85
2020/12/24 07:06:49;;;;;;;1.27;0.85;;;;;;;9.64;85.65;99324.84;1710832;83;21628;-85
2020/12/24 07:09:26;;;;;;;1.62;0.60;;;;;;;9.67;85.61;99330.31;1710741;83;21151;-84
2020/12/24 07:11:53;;;;;;;1.57;0.85;;;;;;;9.67;85.54;99330.31;1695441;83;21167;-85
2020/12/24 07:14:24;;;;;;;1.42;0.78;;;;;;;9.68;85.49;99329.28;1710251;83;21226;-80
2020/12/24 07:16:54;;;;;;;2.15;1.20;;;;;;;9.73;85.42;99332.21;1710517;83;22127;-82
2020/12/24 07:19:20;;;;;;;3.77;1.00;;;;;;;9.77;85.36;99336.14;1698323;83;21182;-83
2020/12/24 07:34:29;;;;;;;6.45;1.70;;;;;;;10.13;84.54;99332.05;1709130;82;22456;-83
2020/12/24 07:36:55;;;;;;;5.03;2.75;;;;;;;10.04;84.42;99336.19;1683199;85;21187;-82
2020/12/24 07:39:21;;;;;;;4.72;1.30;;;;;;;10.00;84.33;99334.91;1680611;85;21628;-83
2020/12/24 07:41:48;;;;;;;1.75;0.72;;;;;;;9.99;84.22;99325.27;1680694;85;21211;-83
2020/12/24 07:44:18;;;;;;;3.58;1.40;;;;;;;10.00;84.11;99334.09;1680695;85;21167;-83
2020/12/24 07:46:46;;;;;;;3.95;2.20;;;;;;;9.98;83.96;99334.30;1658212;85;21843;-82
2020/12/24 07:49:13;;;;;;;6.75;2.15;;;;;;;9.98;83.88;99330.80;1604814;88;21599;-83
2020/12/24 07:51:39;;;;;;;3.87;2.17;;;;;;;9.97;83.79;99342.47;1602894;88;22081;-82
2020/12/24 07:54:12;;;;;;;4.70;1.95;;;;;;;9.93;83.70;99327.88;1619984;88;21230;-82
2020/12/24 07:56:46;;;;;;;2.30;1.57;;;;;;;9.92;83.64;99334.24;1627292;88;21621;-82
2020/12/24 07:59:15;;;;;;;5.72;3.00;;;;;;;9.93;83.52;99341.19;1627528;86;21134;-83
2020/12/24 08:01:41;;;;;;;5.25;2.77;;;;;;;9.93;83.37;99341.19;1654182;86;21211;-82
2020/12/24 08:04:08;;;;;;;6.53;4.65;;;;;;;9.90;83.26;99344.25;1640493;86;21266;-82
2020/12/24 08:06:34;;;;;;;2.90;1.80;;;;;;;9.85;83.19;99333.36;1653788;86;21194;-82
2020/12/24 08:09:14;;;;;;;3.40;1.55;;;;;;;9.82;83.12;99332.38;1590183;89;21151;-83
2020/12/24 08:11:42;;;;;;;4.53;1.30;;;;;;;9.81;83.08;99343.56;1629449;86;21166;-82
2020/12/24 08:14:08;;;;;;;3.27;1.60;;;;;;;9.79;83.00;99335.44;1627605;86;21189;-83
2020/12/24 08:16:37;;;;;;;2.85;1.30;;;;;;;9.79;82.92;99342.09;1627532;88;21230;-82
2020/12/24 08:19:23;;;;;;;4.63;1.57;;;;;;;9.78;82.87;99343.13;1645711;86;21662;-82
2020/12/24 08:22:05;;;;;;;2.15;0.98;;;;;;;9.76;82.82;99337.98;1588181;89;21647;-81
2020/12/24 08:24:31;;;;;;;3.92;1.75;;;;;;;9.74;82.76;99336.02;1628701;86;21611;-81
2020/12/24 08:26:58;;;;;;;3.08;1.40;;;;;;;9.73;82.66;99334.88;1635063;86;21206;-82
2020/12/24 08:29:24;;;;;;;5.03;2.08;;;;;;;9.71;82.60;99332.39;1637668;86;21221;-82
2020/12/24 08:31:50;;;;;;;3.45;1.55;;;;;;;9.72;82.50;99334.55;1627922;86;21194;-82
2020/12/24 08:34:17;;;;;;;5.90;2.50;;;;;;;9.73;82.38;99334.88;1654176;85;21190;-82
2020/12/24 08:36:48;;;;;;;5.90;3.17;;;;;;;9.73;82.24;99334.88;1666793;85;21603;-82
2020/12/24 08:39:17;;;;;;;3.42;2.02;;;;;;;9.75;82.05;99339.48;1666754;85;21182;-81
2020/12/24 08:41:50;;;;;;;7.78;2.85;;;;;;;9.72;81.85;99339.37;1666579;84;21208;-82
2020/12/24 08:44:19;;;;;;;8.00;3.08;;;;;;;9.70;81.61;99348.56;1660985;85;21663;-79
2020/12/24 08:46:46;;;;;;;;;;;;;;;9.68;81.43;99347.41;1683727;85;21231;-79
2020/12/24 08:49:23;;;;;;;3.42;1.50;;;;;;;9.65;81.29;99342.98;1677041;85;20290;-80
2020/12/24 08:51:50;;;;;;;3.72;1.10;;;;;;;9.60;81.01;99347.56;1621367;87;21152;-80
2020/12/24 08:54:17;;;;;;;3.98;1.40;;;;;;;9.58;80.82;99344.25;1674997;84;21279;-79
2020/12/24 08:56:44;;;;;;;11.22;4.05;;;;;;;9.53;80.58;99336.81;1676449;84;21139;-79
2020/12/24 08:59:14;;;;;;;28.15;9.63;;;;;;;9.47;80.37;99341.57;1666323;85;21136;-79
2020/12/24 09:01:44;;;;;;;12.05;4.50;;;;;;;9.39;80.22;99350.99;1653514;86;21207;-80
2020/12/24 09:04:17;;;;;;;11.90;3.85;;;;;;;9.35;80.09;99364.38;1682311;84;21207;-79
2020/12/24 09:06:44;;;;;;;7.40;3.45;;;;;;;9.33;79.97;99365.55;1682052;84;21205;-79
2020/12/24 09:09:24;;;;;;;3.58;2.37;;;;;;;9.31;79.87;99372.41;1682229;84;21182;-79
2020/12/24 09:11:52;;;;;;;5.37;3.52;;;;;;;9.29;79.79;99374.95;1625369;88;21155;-79
2020/12/24 09:14:21;;;;;;;10.45;4.83;;;;;;;9.26;79.65;99370.80;1681642;85;21214;-79
2020/12/24 09:17:01;;;;;;;7.08;2.70;;;;;;;9.28;79.61;99374.13;1810115;78;22545;-80
2020/12/24 09:19:27;;;;;;;5.72;2.62;;;;;;;9.22;79.51;99357.55;1796421;79;20977;-80
2020/12/24 09:21:56;;;;;;;5.00;1.95;;;;;;;9.20;79.41;99342.30;1796186;79;21243;-80
2020/12/24 09:24:22;;;;;;;4.80;1.82;;;;;;;9.18;79.24;99352.31;1796225;79;21092;-80
2020/12/24 09:26:54;;;;;;;6.60;1.80;;;;;;;9.20;79.01;99354.27;1796199;79;21171;-80
2020/12/24 09:29:25;;;;;;;5.15;2.20;;;;;;;9.20;78.70;99358.26;1796018;79;21195;-80
2020/12/24 09:31:59;;;;;;;5.40;1.67;;;;;;;9.18;78.43;99364.78;1796781;79;21175;-80
2020/12/24 09:34:28;;;;;;;6.30;1.82;;;;;;;9.14;78.06;99360.84;1795169;79;21145;-80
2020/12/24 09:36:54;;;;;;;4.78;1.67;;;;;;;9.10;77.60;99363.05;1794995;80;21045;-80
2020/12/24 09:39:21;;;;;;;6.85;2.00;;;;;;;9.09;77.30;99353.41;1795069;80;21151;-79
2020/12/24 09:41:48;;;;;;;8.38;2.35;;;;;;;9.04;76.96;99358.48;1795281;79;21139;-79
2020/12/24 09:44:14;;;;;;;8.00;2.80;;;;;;;8.97;76.49;99365.55;1795032;80;21163;-79
2020/12/24 09:46:40;;;;;;;10.75;3.10;;;;;;;8.92;76.13;99370.08;1795134;80;22130;-79
2020/12/24 09:49:07;;;;;;;7.75;2.40;;;;;;;8.90;75.91;99359.32;1794956;79;21522;-79
2020/12/24 09:51:35;;;;;;;6.95;1.67;;;;;;;8.87;75.73;99374.28;1794955;80;21218;-79
2020/12/24 09:54:04;;;;;;;4.95;1.32;;;;;;;8.83;75.54;99361.06;1795179;80;21128;-79
2020/12/24 09:56:30;;;;;;;6.08;1.40;;;;;;;8.83;75.31;99358.41;1794388;80;21123;-79
2020/12/24 09:58:57;;;;;;;9.48;1.75;;;;;;;8.85;75.14;99352.39;1795111;80;21160;-79
2020/12/24 10:01:23;;;;;;;7.47;0.98;;;;;;;8.86;74.91;99345.57;1794882;80;21163;-80
2020/12/24 10:03:49;;;;;;;4.40;1.20;;;;;;;8.91;74.71;99351.64;1795051;80;21160;-79
2020/12/24 10:06:15;;;;;;;6.50;1.47;;;;;;;8.92;74.43;99344.83;1795026;79;21171;-80
2020/12/24 10:08:42;;;;;;;10.18;2.67;;;;;;;8.93;74.16;99333.69;1795171;80;21682;-79
2020/12/24 10:11:14;;;;;;;6.05;1.40;;;;;;;8.92;73.92;99339.51;1795137;80;21207;-79
2020/12/24 10:13:41;;;;;;;5.20;2.58;;;;;;;8.94;73.78;99335.31;1794798;80;21115;-79
2020/12/24 10:16:07;;;;;;;7.42;2.30;;;;;;;8.94;73.68;99328.67;1784822;80;21192;-79
2020/12/24 10:18:34;;;;;;;8.10;3.40;;;;;;;8.94;73.51;99328.67;1775249;80;21102;-80
2020/12/24 10:21:00;;;;;;;5.53;2.20;;;;;;;8.93;73.29;99331.86;1775484;80;21120;-79
2020/12/24 10:23:26;;;;;;;11.10;2.47;;;;;;;8.92;73.19;99320.06;1775309;80;22092;-79
2020/12/24 10:25:52;;;;;;;5.42;1.75;;;;;;;8.93;73.11;99332.36;1775362;80;21651;-79
2020/12/24 10:28:19;;;;;;;6.28;2.90;;;;;;;8.90;72.86;99336.19;1774865;80;21109;-79
2020/12/24 10:30:45;;;;;;;5.00;1.60;;;;;;;8.91;72.78;99337.84;1774725;80;21116;-79
2020/12/24 10:33:12;;;;;;;6.62;2.10;;;;;;;8.91;72.63;99327.72;1774983;80;21545;-79
2020/12/24 10:35:41;;;;;;;6.08;1.80;;;;;;;8.91;72.33;99325.05;1774379;80;21961;-79
2020/12/24 10:38:07;;;;;;;8.33;2.20;;;;;;;8.91;72.12;99321.89;1774587;80;21640;-79
2020/12/24 10:40:35;;;;;;;5.00;2.00;;;;;;;8.90;71.91;99316.25;1774801;80;21156;-79
2020/12/24 10:43:03;;;;;;;9.38;3.42;;;;;;;8.92;71.74;99314.75;1774863;80;21172;-79
2020/12/24 10:45:29;;;;;;;9.23;2.47;;;;;;;8.93;71.54;99313.75;1774761;80;21597;-79
2020/12/24 10:47:55;;;;;;;14.30;5.45;;;;;;;8.94;71.42;99315.37;1774714;80;21196;-79
2020/12/24 10:50:22;;;;;;;9.78;2.60;;;;;;;8.94;71.33;99311.38;1774825;80;21135;-79
2020/12/24 10:52:48;;;;;;;9.30;2.40;;;;;;;8.96;71.16;99304.06;1774671;80;21172;-79
2020/12/24 10:55:14;;;;;;;12.23;4.40;;;;;;;8.96;70.96;99306.22;1775009;80;21196;-79
2020/12/24 10:57:41;;;;;;;23.47;11.40;;;;;;;8.96;70.93;99292.10;1774824;80;21122;-79
2020/12/24 11:00:07;;;;;;;9.90;4.10;;;;;;;8.97;70.81;99291.09;1774865;80;22163;-79
2020/12/24 11:02:34;;;;;;;16.65;6.10;;;;;;;8.98;70.53;99284.75;1774701;80;21169;-79
2020/12/24 11:05:00;;;;;;;40.23;16.77;;;;;;;9.00;70.48;99286.73;1774749;80;21538;-79
2020/12/24 11:07:26;;;;;;;15.00;6.35;;;;;;;9.01;70.41;99275.06;1774880;80;21643;-79
2020/12/24 11:09:53;;;;;;;22.13;7.97;;;;;;;9.03;70.38;99280.53;1774728;80;21159;-79
2020/12/24 11:12:19;;;;;;;49.35;19.57;;;;;;;9.07;70.18;99269.52;1774894;80;21196;-79
2020/12/24 11:14:45;;;;;;;19.90;6.42;;;;;;;9.05;70.08;99261.71;1774739;80;21184;-79
2020/12/24 11:17:11;;;;;;;50.45;20.92;;;;;;;9.06;70.05;99271.34;1784087;80;21121;-79
2020/12/24 11:19:38;;;;;;;60.80;25.90;;;;;;;9.07;70.06;99265.02;1785934;80;21596;-79
2020/12/24 11:22:04;;;;;;;42.55;17.12;;;;;;;9.09;70.05;99257.67;1786386;80;21116;-78
2020/12/24 11:24:30;;;;;;;26.52;10.32;;;;;;;9.11;70.01;99255.66;1786175;80;21201;-79
2020/12/24 11:26:56;;;;;;;12.40;4.75;;;;;;;9.13;69.97;99252.30;1785897;80;21164;-79
2020/12/24 11:29:23;;;;;;;15.13;6.95;;;;;;;9.14;69.93;99247.30;1786203;80;21542;-79
2020/12/24 11:31:49;;;;;;;8.05;2.55;;;;;;;9.13;69.88;99237.67;1785742;79;21587;-78
2020/12/24 11:34:17;;;;;;;7.25;3.30;;;;;;;9.15;69.75;99235.62;1786160;80;21147;-79
2020/12/24 11:36:44;;;;;;;5.50;2.75;;;;;;;9.19;69.68;99238.23;1785975;80;21127;-79
2020/12/24 11:39:10;;;;;;;10.90;3.77;;;;;;;9.20;69.64;99235.91;1785903;80;21620;-79
2020/12/24 11:41:37;;;;;;;10.13;2.80;;;;;;;9.22;69.60;99235.72;1786105;80;21135;-79
2020/12/24 11:44:03;;;;;;;15.20;3.77;;;;;;;9.23;69.55;99226.70;1786061;80;21132;-78
2020/12/24 11:46:29;;;;;;;10.43;3.33;;;;;;;9.23;69.51;99224.88;1786224;80;21168;-79
2020/12/24 11:48:56;;;;;;;8.08;1.92;;;;;;;9.22;69.23;99220.56;1785895;80;22089;-78
2020/12/24 11:54:08;;;;;;;9.40;3.53;;;;;;;9.22;69.18;99216.57;1795882;78;28031;-79
2020/12/24 11:56:34;;;;;;;7.05;2.08;;;;;;;9.21;68.95;99221.59;1797322;79;21068;-79
2020/12/24 11:59:00;;;;;;;13.48;4.25;;;;;;;9.17;68.75;99208.35;1797000;79;21207;-79